sensor_id;sensor_type;location;lat;lon;timestamp;P1;durP1;ratioP1;P2;durP2;ratioP2
80758;SDS011;70150;45.582;10.178;2023-08-07T00:00:54;0.98;;;0.55;;
80758;SDS011;70150;45.582;10.178;2023-08-07T00:03:19;2.17;;;0.40;;
80758;SDS011;70150;45.582;10.178;2023-08-07T00:05:46;0.80;;;0.35;;
80758;SDS011;70150;45.582;10.178;2023-08-07T00:08:12;0.68;;;0.40;;
80758;SDS011;70150;45.582;10.178;2023-08-07T00:10:38;0.75;;;0.28;;
80758;SDS011;70150;45.582;10.178;2023-08-07T00:13:06;0.30;;;0.10;;
80758;SDS011;70150;45.582;10.178;2023-08-07T00:15:32;0.98;;;0.30;;
80758;SDS011;70150;45.582;10.178;2023-08-07T00:17:59;1.13;;;0.30;;
80758;SDS011;70150;45.582;10.178;2023-08-07T00:20:25;0.38;;;0.30;;
80758;SDS011;70150;45.582;10.178;2023-08-07T00:22:52;0.52;;;0.30;;
80758;SDS011;70150;45.582;10.178;2023-08-07T00:25:18;1.75;;;0.40;;
80758;SDS011;70150;45.582;10.178;2023-08-07T00:27:44;0.90;;;0.50;;
80758;SDS011;70150;45.582;10.178;2023-08-07T00:30:10;1.85;;;0.30;;
80758;SDS011;70150;45.582;10.178;2023-08-07T00:32:36;0.60;;;0.30;;
80758;SDS011;70150;45.582;10.178;2023-08-07T00:35:01;0.32;;;0.32;;
80758;SDS011;70150;45.582;10.178;2023-08-07T00:37:28;0.93;;;0.50;;
80758;SDS011;70150;45.582;10.178;2023-08-07T00:39:54;1.55;;;0.40;;
80758;SDS011;70150;45.582;10.178;2023-08-07T00:42:19;0.60;;;0.45;;
80758;SDS011;70150;45.582;10.178;2023-08-07T00:44:45;0.70;;;0.43;;
80758;SDS011;70150;45.582;10.178;2023-08-07T00:47:10;0.68;;;0.30;;
80758;SDS011;70150;45.582;10.178;2023-08-07T00:49:36;0.68;;;0.40;;
80758;SDS011;70150;45.582;10.178;2023-08-07T00:52:02;1.13;;;0.30;;
80758;SDS011;70150;45.582;10.178;2023-08-07T00:54:29;1.30;;;0.60;;
80758;SDS011;70150;45.582;10.178;2023-08-07T00:56:55;0.50;;;0.43;;
80758;SDS011;70150;45.582;10.178;2023-08-07T00:59:26;0.93;;;0.40;;
80758;SDS011;70150;45.582;10.178;2023-08-07T01:01:52;0.77;;;0.50;;
80758;SDS011;70150;45.582;10.178;2023-08-07T01:04:18;1.50;;;0.38;;
80758;SDS011;70150;45.582;10.178;2023-08-07T01:06:43;0.60;;;0.35;;
80758;SDS011;70150;45.582;10.178;2023-08-07T01:09:09;0.35;;;0.25;;
80758;SDS011;70150;45.582;10.178;2023-08-07T01:11:36;2.45;;;0.50;;
80758;SDS011;70150;45.582;10.178;2023-08-07T01:14:12;0.75;;;0.40;;
80758;SDS011;70150;45.582;10.178;2023-08-07T01:16:50;0.40;;;0.30;;
80758;SDS011;70150;45.582;10.178;2023-08-07T01:19:23;2.10;;;0.40;;
80758;SDS011;70150;45.582;10.178;2023-08-07T01:24:26;0.43;;;0.30;;
80758;SDS011;70150;45.582;10.178;2023-08-07T01:26:54;1.27;;;0.43;;
80758;SDS011;70150;45.582;10.178;2023-08-07T01:29:25;1.30;;;0.45;;
80758;SDS011;70150;45.582;10.178;2023-08-07T01:31:58;0.60;;;0.40;;
80758;SDS011;70150;45.582;10.178;2023-08-07T01:34:27;0.68;;;0.30;;
80758;SDS011;70150;45.582;10.178;2023-08-07T01:36:53;0.60;;;0.32;;
80758;SDS011;70150;45.582;10.178;2023-08-07T01:39:20;0.57;;;0.30;;
80758;SDS011;70150;45.582;10.178;2023-08-07T01:41:48;0.30;;;0.30;;
80758;SDS011;70150;45.582;10.178;2023-08-07T01:44:14;0.30;;;0.20;;
80758;SDS011;70150;45.582;10.178;2023-08-07T01:46:42;0.93;;;0.50;;
80758;SDS011;70150;45.582;10.178;2023-08-07T01:49:07;0.28;;;0.28;;
80758;SDS011;70150;45.582;10.178;2023-08-07T01:51:33;0.57;;;0.20;;
80758;SDS011;70150;45.582;10.178;2023-08-07T01:53:59;0.90;;;0.40;;
80758;SDS011;70150;45.582;10.178;2023-08-07T01:56:24;0.70;;;0.40;;
80758;SDS011;70150;45.582;10.178;2023-08-07T01:58:50;0.45;;;0.32;;
80758;SDS011;70150;45.582;10.178;2023-08-07T02:01:15;0.50;;;0.30;;
80758;SDS011;70150;45.582;10.178;2023-08-07T02:03:41;1.15;;;0.35;;
80758;SDS011;70150;45.582;10.178;2023-08-07T02:06:06;0.60;;;0.30;;
80758;SDS011;70150;45.582;10.178;2023-08-07T02:08:32;1.45;;;0.40;;
80758;SDS011;70150;45.582;10.178;2023-08-07T02:10:58;0.65;;;0.30;;
80758;SDS011;70150;45.582;10.178;2023-08-07T02:13:27;0.77;;;0.30;;
80758;SDS011;70150;45.582;10.178;2023-08-07T02:15:53;0.22;;;0.10;;
80758;SDS011;70150;45.582;10.178;2023-08-07T02:18:18;0.38;;;0.30;;
80758;SDS011;70150;45.582;10.178;2023-08-07T02:20:46;0.38;;;0.28;;
80758;SDS011;70150;45.582;10.178;2023-08-07T02:23:12;0.85;;;0.40;;
80758;SDS011;70150;45.582;10.178;2023-08-07T02:25:37;0.32;;;0.22;;
80758;SDS011;70150;45.582;10.178;2023-08-07T02:28:03;0.50;;;0.40;;
80758;SDS011;70150;45.582;10.178;2023-08-07T02:30:30;0.50;;;0.38;;
80758;SDS011;70150;45.582;10.178;2023-08-07T02:32:56;1.27;;;0.22;;
80758;SDS011;70150;45.582;10.178;2023-08-07T02:35:22;1.17;;;0.20;;
80758;SDS011;70150;45.582;10.178;2023-08-07T02:37:47;1.00;;;0.30;;
80758;SDS011;70150;45.582;10.178;2023-08-07T02:40:13;0.60;;;0.40;;
80758;SDS011;70150;45.582;10.178;2023-08-07T02:42:40;1.42;;;0.40;;
80758;SDS011;70150;45.582;10.178;2023-08-07T02:45:07;0.50;;;0.30;;
80758;SDS011;70150;45.582;10.178;2023-08-07T02:47:33;1.20;;;0.28;;
80758;SDS011;70150;45.582;10.178;2023-08-07T02:49:59;0.22;;;0.22;;
80758;SDS011;70150;45.582;10.178;2023-08-07T02:52:24;0.40;;;0.40;;
80758;SDS011;70150;45.582;10.178;2023-08-07T02:54:50;0.68;;;0.22;;
80758;SDS011;70150;45.582;10.178;2023-08-07T02:57:15;1.13;;;0.20;;
80758;SDS011;70150;45.582;10.178;2023-08-07T02:59:41;0.77;;;0.20;;
80758;SDS011;70150;45.582;10.178;2023-08-07T03:02:07;0.40;;;0.35;;
80758;SDS011;70150;45.582;10.178;2023-08-07T03:04:32;0.20;;;0.17;;
80758;SDS011;70150;45.582;10.178;2023-08-07T03:06:58;0.85;;;0.25;;
80758;SDS011;70150;45.582;10.178;2023-08-07T03:09:24;0.40;;;0.20;;
80758;SDS011;70150;45.582;10.178;2023-08-07T03:11:49;1.85;;;0.30;;
80758;SDS011;70150;45.582;10.178;2023-08-07T03:14:15;0.35;;;0.25;;
80758;SDS011;70150;45.582;10.178;2023-08-07T03:16:40;1.98;;;0.40;;
80758;SDS011;70150;45.582;10.178;2023-08-07T03:19:06;2.88;;;0.43;;
80758;SDS011;70150;45.582;10.178;2023-08-07T03:21:32;1.52;;;0.32;;
80758;SDS011;70150;45.582;10.178;2023-08-07T03:23:57;0.40;;;0.30;;
80758;SDS011;70150;45.582;10.178;2023-08-07T03:26:23;0.57;;;0.25;;
80758;SDS011;70150;45.582;10.178;2023-08-07T03:28:51;1.30;;;0.40;;
80758;SDS011;70150;45.582;10.178;2023-08-07T03:31:17;0.50;;;0.35;;
80758;SDS011;70150;45.582;10.178;2023-08-07T03:33:42;0.80;;;0.30;;
80758;SDS011;70150;45.582;10.178;2023-08-07T03:36:08;0.43;;;0.30;;
80758;SDS011;70150;45.582;10.178;2023-08-07T03:38:34;1.33;;;0.32;;
80758;SDS011;70150;45.582;10.178;2023-08-07T03:40:59;2.10;;;0.28;;
80758;SDS011;70150;45.582;10.178;2023-08-07T03:43:25;0.35;;;0.20;;
80758;SDS011;70150;45.582;10.178;2023-08-07T03:48:22;0.32;;;0.20;;
80758;SDS011;70150;45.582;10.178;2023-08-07T03:50:47;0.63;;;0.30;;
80758;SDS011;70150;45.582;10.178;2023-08-07T03:53:13;2.17;;;0.35;;
80758;SDS011;70150;45.582;10.178;2023-08-07T03:55:39;0.30;;;0.13;;
80758;SDS011;70150;45.582;10.178;2023-08-07T03:58:06;0.30;;;0.28;;
80758;SDS011;70150;45.582;10.178;2023-08-07T04:00:31;1.05;;;0.22;;
80758;SDS011;70150;45.582;10.178;2023-08-07T04:02:57;0.73;;;0.35;;
80758;SDS011;70150;45.582;10.178;2023-08-07T04:05:22;0.68;;;0.30;;
80758;SDS011;70150;45.582;10.178;2023-08-07T04:07:48;2.05;;;0.30;;
80758;SDS011;70150;45.582;10.178;2023-08-07T04:10:14;1.73;;;0.52;;
80758;SDS011;70150;45.582;10.178;2023-08-07T04:12:39;0.52;;;0.40;;
80758;SDS011;70150;45.582;10.178;2023-08-07T04:15:05;0.30;;;0.20;;
80758;SDS011;70150;45.582;10.178;2023-08-07T04:17:31;1.08;;;0.25;;
80758;SDS011;70150;45.582;10.178;2023-08-07T04:19:57;0.90;;;0.45;;
80758;SDS011;70150;45.582;10.178;2023-08-07T04:22:22;3.85;;;0.55;;
80758;SDS011;70150;45.582;10.178;2023-08-07T04:24:48;3.00;;;0.43;;
80758;SDS011;70150;45.582;10.178;2023-08-07T04:27:14;1.42;;;0.38;;
80758;SDS011;70150;45.582;10.178;2023-08-07T04:29:39;2.05;;;0.40;;
80758;SDS011;70150;45.582;10.178;2023-08-07T04:32:05;1.38;;;0.40;;
80758;SDS011;70150;45.582;10.178;2023-08-07T04:34:31;1.67;;;0.40;;
80758;SDS011;70150;45.582;10.178;2023-08-07T04:36:57;1.30;;;0.60;;
80758;SDS011;70150;45.582;10.178;2023-08-07T04:39:22;0.73;;;0.20;;
80758;SDS011;70150;45.582;10.178;2023-08-07T04:41:48;0.32;;;0.30;;
80758;SDS011;70150;45.582;10.178;2023-08-07T04:46:41;1.92;;;0.40;;
80758;SDS011;70150;45.582;10.178;2023-08-07T04:49:09;0.80;;;0.30;;
80758;SDS011;70150;45.582;10.178;2023-08-07T04:51:36;2.25;;;0.30;;
80758;SDS011;70150;45.582;10.178;2023-08-07T04:54:02;0.20;;;0.15;;
80758;SDS011;70150;45.582;10.178;2023-08-07T04:56:27;0.20;;;0.13;;
80758;SDS011;70150;45.582;10.178;2023-08-07T04:58:53;0.38;;;0.30;;
80758;SDS011;70150;45.582;10.178;2023-08-07T05:01:19;3.17;;;0.50;;
80758;SDS011;70150;45.582;10.178;2023-08-07T05:03:44;3.58;;;0.55;;
80758;SDS011;70150;45.582;10.178;2023-08-07T05:06:10;1.00;;;0.43;;
80758;SDS011;70150;45.582;10.178;2023-08-07T05:08:35;3.53;;;0.50;;
80758;SDS011;70150;45.582;10.178;2023-08-07T05:11:01;4.85;;;0.75;;
80758;SDS011;70150;45.582;10.178;2023-08-07T05:13:26;1.95;;;0.50;;
80758;SDS011;70150;45.582;10.178;2023-08-07T05:15:52;0.85;;;0.20;;
80758;SDS011;70150;45.582;10.178;2023-08-07T05:18:17;1.08;;;0.30;;
80758;SDS011;70150;45.582;10.178;2023-08-07T05:20:43;1.33;;;0.38;;
80758;SDS011;70150;45.582;10.178;2023-08-07T05:23:08;0.28;;;0.20;;
80758;SDS011;70150;45.582;10.178;2023-08-07T05:25:35;0.60;;;0.22;;
80758;SDS011;70150;45.582;10.178;2023-08-07T05:28:01;0.73;;;0.28;;
80758;SDS011;70150;45.582;10.178;2023-08-07T05:30:27;0.40;;;0.30;;
80758;SDS011;70150;45.582;10.178;2023-08-07T05:32:53;1.65;;;0.40;;
80758;SDS011;70150;45.582;10.178;2023-08-07T05:35:18;0.80;;;0.40;;
80758;SDS011;70150;45.582;10.178;2023-08-07T05:37:44;1.17;;;0.43;;
80758;SDS011;70150;45.582;10.178;2023-08-07T05:40:10;1.10;;;0.52;;
80758;SDS011;70150;45.582;10.178;2023-08-07T05:42:37;2.33;;;0.40;;
80758;SDS011;70150;45.582;10.178;2023-08-07T05:45:03;1.42;;;0.40;;
80758;SDS011;70150;45.582;10.178;2023-08-07T05:47:29;1.23;;;0.43;;
80758;SDS011;70150;45.582;10.178;2023-08-07T05:49:55;0.75;;;0.45;;
80758;SDS011;70150;45.582;10.178;2023-08-07T05:52:20;1.50;;;0.38;;
80758;SDS011;70150;45.582;10.178;2023-08-07T05:54:46;0.40;;;0.20;;
80758;SDS011;70150;45.582;10.178;2023-08-07T05:57:14;1.40;;;0.50;;
80758;SDS011;70150;45.582;10.178;2023-08-07T05:59:40;1.55;;;0.50;;
80758;SDS011;70150;45.582;10.178;2023-08-07T06:02:06;4.43;;;1.02;;
80758;SDS011;70150;45.582;10.178;2023-08-07T06:04:31;2.80;;;0.60;;
80758;SDS011;70150;45.582;10.178;2023-08-07T06:06:57;2.83;;;0.60;;
80758;SDS011;70150;45.582;10.178;2023-08-07T06:09:23;1.27;;;0.50;;
80758;SDS011;70150;45.582;10.178;2023-08-07T06:11:48;1.40;;;0.50;;
80758;SDS011;70150;45.582;10.178;2023-08-07T06:14:14;1.45;;;0.43;;
80758;SDS011;70150;45.582;10.178;2023-08-07T06:16:39;1.13;;;0.50;;
80758;SDS011;70150;45.582;10.178;2023-08-07T06:19:07;1.35;;;0.50;;
80758;SDS011;70150;45.582;10.178;2023-08-07T06:21:33;0.90;;;0.47;;
80758;SDS011;70150;45.582;10.178;2023-08-07T06:23:59;1.80;;;0.40;;
80758;SDS011;70150;45.582;10.178;2023-08-07T06:26:27;1.50;;;0.50;;
80758;SDS011;70150;45.582;10.178;2023-08-07T06:28:52;1.45;;;0.50;;
80758;SDS011;70150;45.582;10.178;2023-08-07T06:31:18;1.08;;;0.70;;
80758;SDS011;70150;45.582;10.178;2023-08-07T06:33:43;1.40;;;0.60;;
80758;SDS011;70150;45.582;10.178;2023-08-07T06:36:09;1.25;;;0.45;;
80758;SDS011;70150;45.582;10.178;2023-08-07T06:38:34;1.73;;;0.63;;
80758;SDS011;70150;45.582;10.178;2023-08-07T06:41:00;1.85;;;0.60;;
80758;SDS011;70150;45.582;10.178;2023-08-07T06:43:26;1.98;;;0.43;;
80758;SDS011;70150;45.582;10.178;2023-08-07T06:45:53;1.92;;;0.90;;
80758;SDS011;70150;45.582;10.178;2023-08-07T06:48:19;3.22;;;0.75;;
80758;SDS011;70150;45.582;10.178;2023-08-07T06:50:46;2.10;;;0.50;;
80758;SDS011;70150;45.582;10.178;2023-08-07T06:53:13;2.28;;;0.60;;
80758;SDS011;70150;45.582;10.178;2023-08-07T06:55:40;2.03;;;0.70;;
80758;SDS011;70150;45.582;10.178;2023-08-07T06:58:06;1.30;;;0.75;;
80758;SDS011;70150;45.582;10.178;2023-08-07T07:03:00;4.32;;;0.98;;
80758;SDS011;70150;45.582;10.178;2023-08-07T07:05:26;5.72;;;0.90;;
80758;SDS011;70150;45.582;10.178;2023-08-07T07:07:52;3.38;;;0.70;;
80758;SDS011;70150;45.582;10.178;2023-08-07T07:10:17;5.45;;;1.00;;
80758;SDS011;70150;45.582;10.178;2023-08-07T07:12:43;3.05;;;0.90;;
80758;SDS011;70150;45.582;10.178;2023-08-07T07:15:09;2.47;;;0.90;;
80758;SDS011;70150;45.582;10.178;2023-08-07T07:17:37;3.20;;;0.73;;
80758;SDS011;70150;45.582;10.178;2023-08-07T07:20:03;4.20;;;0.80;;
80758;SDS011;70150;45.582;10.178;2023-08-07T07:22:34;5.70;;;1.20;;
80758;SDS011;70150;45.582;10.178;2023-08-07T07:25:00;6.47;;;1.05;;
80758;SDS011;70150;45.582;10.178;2023-08-07T07:27:25;4.50;;;0.95;;
80758;SDS011;70150;45.582;10.178;2023-08-07T07:29:51;4.10;;;1.20;;
80758;SDS011;70150;45.582;10.178;2023-08-07T07:32:17;3.75;;;0.93;;
80758;SDS011;70150;45.582;10.178;2023-08-07T07:34:43;6.15;;;1.00;;
80758;SDS011;70150;45.582;10.178;2023-08-07T07:37:09;3.55;;;1.10;;
80758;SDS011;70150;45.582;10.178;2023-08-07T07:39:35;2.05;;;0.98;;
80758;SDS011;70150;45.582;10.178;2023-08-07T07:42:01;3.80;;;1.20;;
80758;SDS011;70150;45.582;10.178;2023-08-07T07:44:26;4.03;;;0.93;;
80758;SDS011;70150;45.582;10.178;2023-08-07T07:46:52;2.47;;;0.90;;
80758;SDS011;70150;45.582;10.178;2023-08-07T07:49:20;5.07;;;1.10;;
80758;SDS011;70150;45.582;10.178;2023-08-07T07:51:46;6.43;;;1.27;;
80758;SDS011;70150;45.582;10.178;2023-08-07T07:54:11;3.83;;;1.10;;
80758;SDS011;70150;45.582;10.178;2023-08-07T07:56:37;3.70;;;0.93;;
80758;SDS011;70150;45.582;10.178;2023-08-07T07:59:02;4.80;;;1.10;;
80758;SDS011;70150;45.582;10.178;2023-08-07T08:01:28;5.70;;;1.02;;
80758;SDS011;70150;45.582;10.178;2023-08-07T08:03:53;4.40;;;1.08;;
80758;SDS011;70150;45.582;10.178;2023-08-07T08:06:19;6.65;;;1.20;;
80758;SDS011;70150;45.582;10.178;2023-08-07T08:08:45;6.13;;;1.08;;
80758;SDS011;70150;45.582;10.178;2023-08-07T08:11:10;3.10;;;0.90;;
80758;SDS011;70150;45.582;10.178;2023-08-07T08:13:36;4.18;;;1.10;;
80758;SDS011;70150;45.582;10.178;2023-08-07T08:16:04;2.90;;;1.00;;
80758;SDS011;70150;45.582;10.178;2023-08-07T08:18:30;3.33;;;1.02;;
80758;SDS011;70150;45.582;10.178;2023-08-07T08:20:58;3.35;;;1.00;;
80758;SDS011;70150;45.582;10.178;2023-08-07T08:23:23;2.08;;;0.88;;
80758;SDS011;70150;45.582;10.178;2023-08-07T08:25:49;4.78;;;1.00;;
80758;SDS011;70150;45.582;10.178;2023-08-07T08:28:16;2.80;;;0.70;;
80758;SDS011;70150;45.582;10.178;2023-08-07T08:30:42;4.90;;;1.17;;
80758;SDS011;70150;45.582;10.178;2023-08-07T08:33:07;4.82;;;1.00;;
80758;SDS011;70150;45.582;10.178;2023-08-07T08:35:39;5.40;;;0.70;;
80758;SDS011;70150;45.582;10.178;2023-08-07T08:38:05;2.88;;;0.90;;
80758;SDS011;70150;45.582;10.178;2023-08-07T08:40:31;5.97;;;1.27;;
80758;SDS011;70150;45.582;10.178;2023-08-07T08:42:59;7.85;;;1.23;;
80758;SDS011;70150;45.582;10.178;2023-08-07T08:45:26;3.60;;;0.82;;
80758;SDS011;70150;45.582;10.178;2023-08-07T08:47:54;4.90;;;0.95;;
80758;SDS011;70150;45.582;10.178;2023-08-07T08:50:25;3.45;;;1.00;;
80758;SDS011;70150;45.582;10.178;2023-08-07T08:52:54;4.65;;;1.00;;
80758;SDS011;70150;45.582;10.178;2023-08-07T08:55:21;5.60;;;1.05;;
80758;SDS011;70150;45.582;10.178;2023-08-07T08:57:48;4.30;;;0.98;;
80758;SDS011;70150;45.582;10.178;2023-08-07T09:00:17;4.70;;;0.88;;
80758;SDS011;70150;45.582;10.178;2023-08-07T09:02:47;4.82;;;1.20;;
80758;SDS011;70150;45.582;10.178;2023-08-07T09:05:16;6.13;;;1.20;;
80758;SDS011;70150;45.582;10.178;2023-08-07T09:07:43;8.15;;;1.33;;
80758;SDS011;70150;45.582;10.178;2023-08-07T09:10:11;4.53;;;1.50;;
80758;SDS011;70150;45.582;10.178;2023-08-07T09:12:41;6.03;;;1.20;;
80758;SDS011;70150;45.582;10.178;2023-08-07T09:15:10;3.47;;;1.00;;
80758;SDS011;70150;45.582;10.178;2023-08-07T09:17:41;4.13;;;1.20;;
80758;SDS011;70150;45.582;10.178;2023-08-07T09:20:09;4.70;;;1.20;;
80758;SDS011;70150;45.582;10.178;2023-08-07T09:22:39;3.45;;;1.23;;
80758;SDS011;70150;45.582;10.178;2023-08-07T09:25:06;5.07;;;1.33;;
80758;SDS011;70150;45.582;10.178;2023-08-07T09:27:34;4.53;;;1.05;;
80758;SDS011;70150;45.582;10.178;2023-08-07T09:30:02;5.22;;;1.27;;
80758;SDS011;70150;45.582;10.178;2023-08-07T09:32:28;4.93;;;1.08;;
80758;SDS011;70150;45.582;10.178;2023-08-07T09:34:53;2.63;;;1.08;;
80758;SDS011;70150;45.582;10.178;2023-08-07T09:37:20;5.03;;;0.98;;
80758;SDS011;70150;45.582;10.178;2023-08-07T09:39:45;7.28;;;1.15;;
80758;SDS011;70150;45.582;10.178;2023-08-07T09:42:13;6.10;;;0.98;;
80758;SDS011;70150;45.582;10.178;2023-08-07T09:44:40;3.55;;;1.20;;
80758;SDS011;70150;45.582;10.178;2023-08-07T09:49:38;2.65;;;1.20;;
80758;SDS011;70150;45.582;10.178;2023-08-07T09:52:06;4.57;;;1.13;;
80758;SDS011;70150;45.582;10.178;2023-08-07T09:54:33;3.95;;;1.00;;
80758;SDS011;70150;45.582;10.178;2023-08-07T09:56:59;2.15;;;0.80;;
80758;SDS011;70150;45.582;10.178;2023-08-07T09:59:27;4.78;;;1.10;;
80758;SDS011;70150;45.582;10.178;2023-08-07T10:01:53;4.50;;;1.00;;
80758;SDS011;70150;45.582;10.178;2023-08-07T10:04:21;4.45;;;1.10;;
80758;SDS011;70150;45.582;10.178;2023-08-07T10:06:47;4.20;;;0.98;;
80758;SDS011;70150;45.582;10.178;2023-08-07T10:09:13;5.78;;;1.00;;
80758;SDS011;70150;45.582;10.178;2023-08-07T10:11:39;3.30;;;0.90;;
80758;SDS011;70150;45.582;10.178;2023-08-07T10:14:06;3.67;;;1.00;;
80758;SDS011;70150;45.582;10.178;2023-08-07T10:16:33;5.18;;;1.00;;
80758;SDS011;70150;45.582;10.178;2023-08-07T10:19:04;2.10;;;0.80;;
80758;SDS011;70150;45.582;10.178;2023-08-07T10:21:31;4.55;;;1.00;;
80758;SDS011;70150;45.582;10.178;2023-08-07T10:24:00;3.05;;;0.77;;
80758;SDS011;70150;45.582;10.178;2023-08-07T10:26:28;1.95;;;0.90;;
80758;SDS011;70150;45.582;10.178;2023-08-07T10:28:55;3.45;;;0.98;;
80758;SDS011;70150;45.582;10.178;2023-08-07T10:31:22;3.55;;;0.98;;
80758;SDS011;70150;45.582;10.178;2023-08-07T10:33:49;2.45;;;0.85;;
80758;SDS011;70150;45.582;10.178;2023-08-07T10:36:15;1.80;;;0.47;;
80758;SDS011;70150;45.582;10.178;2023-08-07T10:38:42;1.50;;;0.50;;
80758;SDS011;70150;45.582;10.178;2023-08-07T10:41:09;1.38;;;0.75;;
80758;SDS011;70150;45.582;10.178;2023-08-07T10:43:38;2.38;;;0.77;;
80758;SDS011;70150;45.582;10.178;2023-08-07T10:46:06;3.35;;;0.88;;
80758;SDS011;70150;45.582;10.178;2023-08-07T10:51:03;3.83;;;0.80;;
80758;SDS011;70150;45.582;10.178;2023-08-07T10:55:57;2.25;;;0.73;;
80758;SDS011;70150;45.582;10.178;2023-08-07T10:58:25;2.03;;;0.60;;
80758;SDS011;70150;45.582;10.178;2023-08-07T11:01:14;1.92;;;0.60;;
80758;SDS011;70150;45.582;10.178;2023-08-07T11:03:42;1.60;;;0.70;;
80758;SDS011;70150;45.582;10.178;2023-08-07T11:06:09;0.70;;;0.50;;
80758;SDS011;70150;45.582;10.178;2023-08-07T11:08:36;5.68;;;0.90;;
80758;SDS011;70150;45.582;10.178;2023-08-07T11:11:04;1.38;;;0.50;;
80758;SDS011;70150;45.582;10.178;2023-08-07T11:13:31;1.38;;;0.50;;
80758;SDS011;70150;45.582;10.178;2023-08-07T11:15:57;0.93;;;0.40;;
80758;SDS011;70150;45.582;10.178;2023-08-07T11:18:22;3.65;;;0.40;;
80758;SDS011;70150;45.582;10.178;2023-08-07T11:20:48;1.30;;;0.40;;
80758;SDS011;70150;45.582;10.178;2023-08-07T11:23:14;3.78;;;0.40;;
80758;SDS011;70150;45.582;10.178;2023-08-07T11:25:47;0.45;;;0.32;;
80758;SDS011;70150;45.582;10.178;2023-08-07T11:28:13;0.60;;;0.30;;
80758;SDS011;70150;45.582;10.178;2023-08-07T11:30:38;3.08;;;0.30;;
80758;SDS011;70150;45.582;10.178;2023-08-07T11:33:05;1.27;;;0.38;;
80758;SDS011;70150;45.582;10.178;2023-08-07T11:35:31;0.75;;;0.40;;
80758;SDS011;70150;45.582;10.178;2023-08-07T11:37:56;1.30;;;0.32;;
80758;SDS011;70150;45.582;10.178;2023-08-07T11:40:23;1.55;;;0.30;;
80758;SDS011;70150;45.582;10.178;2023-08-07T11:42:48;0.55;;;0.28;;
80758;SDS011;70150;45.582;10.178;2023-08-07T11:45:14;0.30;;;0.25;;
80758;SDS011;70150;45.582;10.178;2023-08-07T11:47:40;0.68;;;0.52;;
80758;SDS011;70150;45.582;10.178;2023-08-07T11:50:06;1.20;;;0.30;;
80758;SDS011;70150;45.582;10.178;2023-08-07T11:52:32;1.38;;;0.50;;
80758;SDS011;70150;45.582;10.178;2023-08-07T11:54:58;0.30;;;0.25;;
80758;SDS011;70150;45.582;10.178;2023-08-07T11:57:29;0.55;;;0.30;;
80758;SDS011;70150;45.582;10.178;2023-08-07T11:59:55;1.25;;;0.40;;
80758;SDS011;70150;45.582;10.178;2023-08-07T12:04:49;0.90;;;0.50;;
80758;SDS011;70150;45.582;10.178;2023-08-07T12:07:17;0.45;;;0.40;;
80758;SDS011;70150;45.582;10.178;2023-08-07T12:09:44;0.47;;;0.40;;
80758;SDS011;70150;45.582;10.178;2023-08-07T12:12:11;0.50;;;0.50;;
80758;SDS011;70150;45.582;10.178;2023-08-07T12:14:36;1.40;;;0.35;;
80758;SDS011;70150;45.582;10.178;2023-08-07T12:17:04;0.63;;;0.40;;
80758;SDS011;70150;45.582;10.178;2023-08-07T12:22:03;3.92;;;0.40;;
80758;SDS011;70150;45.582;10.178;2023-08-07T12:24:31;0.85;;;0.30;;
80758;SDS011;70150;45.582;10.178;2023-08-07T12:26:56;1.70;;;0.50;;
80758;SDS011;70150;45.582;10.178;2023-08-07T12:29:22;2.55;;;0.60;;
80758;SDS011;70150;45.582;10.178;2023-08-07T12:31:48;0.82;;;0.50;;
80758;SDS011;70150;45.582;10.178;2023-08-07T12:34:14;0.40;;;0.32;;
80758;SDS011;70150;45.582;10.178;2023-08-07T12:36:41;1.35;;;0.40;;
80758;SDS011;70150;45.582;10.178;2023-08-07T12:39:09;1.70;;;0.40;;
80758;SDS011;70150;45.582;10.178;2023-08-07T12:41:34;0.50;;;0.40;;
80758;SDS011;70150;45.582;10.178;2023-08-07T12:44:00;1.10;;;0.40;;
80758;SDS011;70150;45.582;10.178;2023-08-07T12:46:26;2.20;;;0.40;;
80758;SDS011;70150;45.582;10.178;2023-08-07T12:48:51;1.20;;;0.50;;
80758;SDS011;70150;45.582;10.178;2023-08-07T12:51:17;0.90;;;0.60;;
80758;SDS011;70150;45.582;10.178;2023-08-07T12:53:43;2.33;;;0.60;;
80758;SDS011;70150;45.582;10.178;2023-08-07T12:56:10;0.88;;;0.50;;
80758;SDS011;70150;45.582;10.178;2023-08-07T12:58:35;0.55;;;0.30;;
80758;SDS011;70150;45.582;10.178;2023-08-07T13:01:01;0.32;;;0.32;;
80758;SDS011;70150;45.582;10.178;2023-08-07T13:03:26;0.35;;;0.20;;
80758;SDS011;70150;45.582;10.178;2023-08-07T13:05:52;2.75;;;0.47;;
80758;SDS011;70150;45.582;10.178;2023-08-07T13:08:20;0.32;;;0.30;;
80758;SDS011;70150;45.582;10.178;2023-08-07T13:10:45;0.68;;;0.50;;
80758;SDS011;70150;45.582;10.178;2023-08-07T13:13:11;0.50;;;0.40;;
80758;SDS011;70150;45.582;10.178;2023-08-07T13:15:37;1.27;;;0.40;;
80758;SDS011;70150;45.582;10.178;2023-08-07T13:18:02;0.30;;;0.30;;
80758;SDS011;70150;45.582;10.178;2023-08-07T13:20:28;1.25;;;0.43;;
80758;SDS011;70150;45.582;10.178;2023-08-07T13:22:58;0.57;;;0.30;;
80758;SDS011;70150;45.582;10.178;2023-08-07T13:25:24;0.45;;;0.10;;
80758;SDS011;70150;45.582;10.178;2023-08-07T13:27:49;0.80;;;0.35;;
80758;SDS011;70150;45.582;10.178;2023-08-07T13:30:15;0.88;;;0.40;;
80758;SDS011;70150;45.582;10.178;2023-08-07T13:32:41;0.60;;;0.50;;
80758;SDS011;70150;45.582;10.178;2023-08-07T13:35:06;0.55;;;0.40;;
80758;SDS011;70150;45.582;10.178;2023-08-07T13:37:33;0.75;;;0.30;;
80758;SDS011;70150;45.582;10.178;2023-08-07T13:39:59;0.80;;;0.30;;
80758;SDS011;70150;45.582;10.178;2023-08-07T13:42:25;0.95;;;0.52;;
80758;SDS011;70150;45.582;10.178;2023-08-07T13:44:52;2.08;;;0.32;;
80758;SDS011;70150;45.582;10.178;2023-08-07T13:47:18;0.73;;;0.30;;
80758;SDS011;70150;45.582;10.178;2023-08-07T13:49:45;1.10;;;0.38;;
80758;SDS011;70150;45.582;10.178;2023-08-07T13:52:11;0.50;;;0.30;;
80758;SDS011;70150;45.582;10.178;2023-08-07T13:54:37;1.20;;;0.40;;
80758;SDS011;70150;45.582;10.178;2023-08-07T13:57:03;0.63;;;0.35;;
80758;SDS011;70150;45.582;10.178;2023-08-07T13:59:29;0.40;;;0.32;;
80758;SDS011;70150;45.582;10.178;2023-08-07T14:01:54;1.38;;;0.30;;
80758;SDS011;70150;45.582;10.178;2023-08-07T14:06:46;1.27;;;0.50;;
80758;SDS011;70150;45.582;10.178;2023-08-07T14:09:12;0.95;;;0.50;;
80758;SDS011;70150;45.582;10.178;2023-08-07T14:14:04;0.70;;;0.40;;
80758;SDS011;70150;45.582;10.178;2023-08-07T14:16:30;0.73;;;0.28;;
80758;SDS011;70150;45.582;10.178;2023-08-07T14:18:58;0.93;;;0.50;;
80758;SDS011;70150;45.582;10.178;2023-08-07T14:21:23;1.00;;;0.52;;
80758;SDS011;70150;45.582;10.178;2023-08-07T14:23:49;0.60;;;0.38;;
80758;SDS011;70150;45.582;10.178;2023-08-07T14:26:15;0.40;;;0.30;;
80758;SDS011;70150;45.582;10.178;2023-08-07T14:28:42;0.90;;;0.40;;
80758;SDS011;70150;45.582;10.178;2023-08-07T14:31:08;1.52;;;0.40;;
80758;SDS011;70150;45.582;10.178;2023-08-07T14:33:35;1.27;;;0.32;;
80758;SDS011;70150;45.582;10.178;2023-08-07T14:36:01;0.55;;;0.32;;
80758;SDS011;70150;45.582;10.178;2023-08-07T14:38:27;0.35;;;0.30;;
80758;SDS011;70150;45.582;10.178;2023-08-07T14:40:53;1.15;;;0.40;;
80758;SDS011;70150;45.582;10.178;2023-08-07T14:43:19;1.27;;;0.50;;
80758;SDS011;70150;45.582;10.178;2023-08-07T14:45:44;0.65;;;0.40;;
80758;SDS011;70150;45.582;10.178;2023-08-07T14:48:10;3.13;;;0.70;;
80758;SDS011;70150;45.582;10.178;2023-08-07T14:50:35;0.55;;;0.47;;
80758;SDS011;70150;45.582;10.178;2023-08-07T14:53:01;0.90;;;0.45;;
80758;SDS011;70150;45.582;10.178;2023-08-07T14:55:26;2.00;;;0.43;;